Time;durP1;ratioP1;P1;durP2;ratioP2;P2;SDS_P1;SDS_P2;PMS_P1;PMS_P2;Temp;Humidity;BMP_temperature;BMP_pressure;BME280_temperature;BME280_humidity;BME280_pressure;Samples;Min_cycle;Max_cycle;Signal;HPM_P1;HPM_P2
2022/08/21 00:00:52;;;;;;;19.23;5.40;;;;;;;;;;1726668;81;20970;-68
2022/08/21 00:03:18;;;;;;;12.20;4.70;;;;;;;;;;1679584;83;21028;-68
2022/08/21 00:05:45;;;;;;;17.10;5.47;;;;;;;;;;1674895;84;21875;-68
2022/08/21 00:08:11;;;;;;;14.63;5.25;;;;;;;;;;1673247;84;21134;-68
2022/08/21 00:10:38;;;;;;;12.43;4.97;;;;;;;;;;1671321;85;20988;-69
2022/08/21 00:13:04;;;;;;;18.45;5.20;;;;;;;;;;1690085;83;20999;-68
2022/08/21 00:15:30;;;;;;;20.48;5.30;;;;;;;;;;1685841;83;21000;-68
2022/08/21 00:17:56;;;;;;;16.75;5.40;;;;;;;;;;1649041;85;21066;-68
2022/08/21 00:20:23;;;;;;;17.73;5.47;;;;;;;;;;1680003;85;21023;-68
2022/08/21 00:22:49;;;;;;;15.35;4.95;;;;;;;;;;1663121;84;21079;-69
2022/08/21 00:25:16;;;;;;;13.40;5.92;;;;;;;;;;1690964;83;21021;-69
2022/08/21 00:27:42;;;;;;;16.60;5.03;;;;;;;;;;1689506;83;21644;-69
2022/08/21 00:30:09;;;;;;;18.27;5.90;;;;;;;;;;1680168;83;21092;-70
2022/08/21 00:32:36;;;;;;;18.90;5.95;;;;;;;;;;1717562;82;21042;-69
2022/08/21 00:35:03;;;;;;;13.60;5.55;;;;;;;;;;1717444;82;21403;-70
2022/08/21 00:37:29;;;;;;;18.20;5.40;;;;;;;;;;1714622;82;21103;-69
2022/08/21 01:04:39;;;;;;;18.62;5.30;;;;;;;;;;1711912;78;21198;-74
2022/08/21 01:07:06;;;;;;;17.55;5.45;;;;;;;;;;1699729;84;21507;-73
2022/08/21 01:09:33;;;;;;;15.08;4.80;;;;;;;;;;1699929;84;21056;-74
2022/08/21 01:11:59;;;;;;;12.58;5.08;;;;;;;;;;1700088;83;21067;-74
2022/08/21 01:14:25;;;;;;;19.73;4.83;;;;;;;;;;1703103;84;21071;-74
2022/08/21 01:16:52;;;;;;;16.52;5.08;;;;;;;;;;1699119;84;21624;-75
2022/08/21 01:19:18;;;;;;;19.12;5.67;;;;;;;;;;1700250;83;21049;-74
2022/08/21 01:21:44;;;;;;;14.45;5.08;;;;;;;;;;1703198;83;21104;-74
2022/08/21 01:24:11;;;;;;;18.62;5.20;;;;;;;;;;1704109;84;21052;-74
2022/08/21 01:26:37;;;;;;;14.15;5.00;;;;;;;;;;1700630;84;21091;-75
2022/08/21 01:29:11;;;;;;;12.53;4.58;;;;;;;;;;1701269;84;22280;-74
2022/08/21 01:31:37;;;;;;;14.87;4.70;;;;;;;;;;1703580;84;21586;-74
2022/08/21 01:34:03;;;;;;;17.92;5.87;;;;;;;;;;1700177;84;21008;-75
2022/08/21 01:36:30;;;;;;;13.58;4.40;;;;;;;;;;1697156;84;21101;-75
2022/08/21 01:38:56;;;;;;;17.52;5.00;;;;;;;;;;1701927;83;21098;-74
2022/08/21 01:41:22;;;;;;;13.90;4.85;;;;;;;;;;1698560;82;21056;-75
2022/08/21 01:43:48;;;;;;;13.40;4.35;;;;;;;;;;1697576;84;21052;-75
2022/08/21 01:46:14;;;;;;;16.23;4.85;;;;;;;;;;1703720;83;22528;-75
2022/08/21 01:48:41;;;;;;;16.80;4.67;;;;;;;;;;1697940;84;21068;-75
2022/08/21 01:51:07;;;;;;;17.12;4.75;;;;;;;;;;1700833;83;21067;-74
2022/08/21 01:53:35;;;;;;;15.98;5.00;;;;;;;;;;1700793;83;21099;-74
2022/08/21 01:56:03;;;;;;;14.03;4.47;;;;;;;;;;1701215;84;20990;-74
2022/08/21 01:58:29;;;;;;;13.40;4.67;;;;;;;;;;1700085;84;21537;-73
2022/08/21 02:00:55;;;;;;;15.13;4.97;;;;;;;;;;1700227;84;21100;-74
2022/08/21 02:03:21;;;;;;;21.90;4.80;;;;;;;;;;1690753;84;21131;-75
2022/08/21 02:05:48;;;;;;;12.50;4.25;;;;;;;;;;1681305;85;21047;-75
2022/08/21 02:08:14;;;;;;;12.35;4.97;;;;;;;;;;1682190;84;21075;-75
2022/08/21 02:10:42;;;;;;;12.95;3.98;;;;;;;;;;1674235;84;21087;-75
2022/08/21 02:13:08;;;;;;;15.10;4.50;;;;;;;;;;1671408;85;21059;-74
2022/08/21 02:15:36;;;;;;;14.38;4.58;;;;;;;;;;1668781;85;21036;-74
2022/08/21 02:18:02;;;;;;;12.25;4.65;;;;;;;;;;1672549;85;21586;-74
2022/08/21 02:20:30;;;;;;;16.85;5.47;;;;;;;;;;1670040;85;21112;-74
2022/08/21 02:22:56;;;;;;;16.73;5.20;;;;;;;;;;1671933;85;21070;-74
2022/08/21 02:25:23;;;;;;;13.00;4.70;;;;;;;;;;1669169;85;21052;-74
2022/08/21 02:27:49;;;;;;;14.90;4.08;;;;;;;;;;1670540;85;21201;-74
2022/08/21 02:30:23;;;;;;;16.15;5.12;;;;;;;;;;1671845;85;21031;-73
2022/08/21 02:32:50;;;;;;;12.88;4.85;;;;;;;;;;1672266;85;21123;-74
2022/08/21 02:35:18;;;;;;;13.98;4.03;;;;;;;;;;1671655;85;21544;-75
2022/08/21 02:37:45;;;;;;;11.90;4.25;;;;;;;;;;1669714;85;21060;-75
2022/08/21 02:40:11;;;;;;;14.38;4.70;;;;;;;;;;1670422;85;21081;-74
2022/08/21 02:42:38;;;;;;;12.73;4.35;;;;;;;;;;1673144;84;21076;-74
2022/08/21 02:45:05;;;;;;;17.77;4.95;;;;;;;;;;1671975;85;21056;-75
2022/08/21 02:47:32;;;;;;;19.92;4.60;;;;;;;;;;1671098;85;21015;-74
2022/08/21 02:49:58;;;;;;;11.90;4.37;;;;;;;;;;1668605;85;21612;-73
2022/08/21 02:52:24;;;;;;;10.78;4.37;;;;;;;;;;1673555;85;21091;-77
2022/08/21 02:54:50;;;;;;;12.98;4.08;;;;;;;;;;1671181;85;21052;-78
2022/08/21 02:57:16;;;;;;;10.13;4.12;;;;;;;;;;1670517;85;21046;-77
2022/08/21 02:59:43;;;;;;;15.90;4.40;;;;;;;;;;1671841;85;21068;-75
2022/08/21 03:02:11;;;;;;;13.22;4.53;;;;;;;;;;1673315;85;21101;-75
2022/08/21 03:04:37;;;;;;;16.77;4.97;;;;;;;;;;1675479;84;21685;-77
2022/08/21 03:07:05;;;;;;;14.28;4.70;;;;;;;;;;1686747;84;21054;-75
2022/08/21 03:09:31;;;;;;;13.68;4.45;;;;;;;;;;1686342;84;21060;-76
2022/08/21 03:11:57;;;;;;;10.98;4.42;;;;;;;;;;1688890;84;21560;-76
2022/08/21 03:14:24;;;;;;;15.68;4.60;;;;;;;;;;1690439;84;22276;-75
2022/08/21 03:16:50;;;;;;;14.30;4.33;;;;;;;;;;1689815;84;21126;-75
2022/08/21 03:19:16;;;;;;;12.58;4.30;;;;;;;;;;1687408;84;21234;-76
2022/08/21 03:21:42;;;;;;;13.50;4.80;;;;;;;;;;1661211;85;21659;-76
2022/08/21 03:24:09;;;;;;;17.00;5.00;;;;;;;;;;1665236;85;22649;-76
2022/08/21 03:26:35;;;;;;;17.55;4.30;;;;;;;;;;1665615;85;21020;-76
2022/08/21 03:29:01;;;;;;;14.23;4.47;;;;;;;;;;1665766;85;21017;-76
2022/08/21 03:31:30;;;;;;;15.48;4.58;;;;;;;;;;1656002;86;21078;-77
2022/08/21 03:33:55;;;;;;;13.60;4.65;;;;;;;;;;1661906;85;21110;-76
2022/08/21 03:36:21;;;;;;;12.45;4.08;;;;;;;;;;1665319;85;21048;-76
2022/08/21 03:38:47;;;;;;;16.20;4.33;;;;;;;;;;1660882;85;21564;-76
2022/08/21 03:41:13;;;;;;;19.17;4.75;;;;;;;;;;1664209;85;21099;-76
2022/08/21 03:43:39;;;;;;;15.68;4.37;;;;;;;;;;1663434;85;21076;-76
2022/08/21 03:46:05;;;;;;;13.48;4.78;;;;;;;;;;1667751;85;21000;-76
2022/08/21 03:48:32;;;;;;;12.00;3.67;;;;;;;;;;1658293;85;21144;-76
2022/08/21 03:50:58;;;;;;;16.45;4.10;;;;;;;;;;1661159;85;21075;-76
2022/08/21 03:53:24;;;;;;;12.82;4.22;;;;;;;;;;1663833;85;21052;-76
2022/08/21 03:55:52;;;;;;;20.23;5.08;;;;;;;;;;1663505;85;21016;-77
2022/08/21 03:58:19;;;;;;;18.25;4.60;;;;;;;;;;1664630;85;22173;-77
2022/08/21 04:00:46;;;;;;;12.78;4.62;;;;;;;;;;1663277;85;21094;-76
2022/08/21 04:03:12;;;;;;;10.53;3.87;;;;;;;;;;1661537;83;21144;-77
2022/08/21 04:05:39;;;;;;;13.18;3.92;;;;;;;;;;1663441;85;21050;-76
2022/08/21 04:08:05;;;;;;;16.50;4.20;;;;;;;;;;1663424;85;22249;-76
2022/08/21 04:10:31;;;;;;;18.77;4.60;;;;;;;;;;1662913;85;22237;-76
2022/08/21 04:12:58;;;;;;;15.90;4.70;;;;;;;;;;1663628;85;21079;-76
2022/08/21 04:15:24;;;;;;;10.90;3.72;;;;;;;;;;1665244;85;21064;-75
2022/08/21 04:17:50;;;;;;;16.42;4.00;;;;;;;;;;1663583;85;21043;-75
2022/08/21 04:20:17;;;;;;;14.30;4.35;;;;;;;;;;1660352;85;21089;-75
2022/08/21 04:22:44;;;;;;;14.03;4.42;;;;;;;;;;1663463;85;21032;-75
2022/08/21 04:25:10;;;;;;;11.40;4.90;;;;;;;;;;1662151;85;21060;-76
2022/08/21 04:27:37;;;;;;;13.90;4.62;;;;;;;;;;1662321;85;21115;-76
2022/08/21 04:30:04;;;;;;;17.15;4.72;;;;;;;;;;1663113;85;21588;-76
2022/08/21 04:32:30;;;;;;;13.70;4.15;;;;;;;;;;1661759;85;21579;-77
2022/08/21 04:35:00;;;;;;;10.18;4.25;;;;;;;;;;1657848;85;21141;-77
2022/08/21 04:37:27;;;;;;;17.40;3.75;;;;;;;;;;1664439;85;21156;-76
2022/08/21 04:39:56;;;;;;;14.95;4.55;;;;;;;;;;1663872;85;21067;-77
2022/08/21 04:42:21;;;;;;;14.23;4.20;;;;;;;;;;1663282;85;21615;-76
2022/08/21 04:44:48;;;;;;;12.90;4.17;;;;;;;;;;1660959;85;21320;-77
2022/08/21 04:47:15;;;;;;;16.48;4.25;;;;;;;;;;1674063;85;21093;-77
2022/08/21 04:49:42;;;;;;;20.60;4.65;;;;;;;;;;1665010;85;21051;-74
2022/08/21 04:52:08;;;;;;;18.62;4.85;;;;;;;;;;1664783;85;22177;-76
2022/08/21 04:54:34;;;;;;;15.30;4.40;;;;;;;;;;1662909;85;21069;-77
2022/08/21 04:57:03;;;;;;;12.45;4.05;;;;;;;;;;1663420;85;21044;-77
2022/08/21 04:59:33;;;;;;;12.88;4.45;;;;;;;;;;1662471;85;21082;-77
2022/08/21 05:01:59;;;;;;;15.93;3.98;;;;;;;;;;1665678;84;21110;-77
2022/08/21 05:04:27;;;;;;;13.75;3.83;;;;;;;;;;1664052;85;21668;-77
2022/08/21 05:06:54;;;;;;;16.80;4.58;;;;;;;;;;1638954;85;21085;-77
2022/08/21 05:09:20;;;;;;;11.22;3.92;;;;;;;;;;1636912;87;21055;-76
2022/08/21 05:11:46;;;;;;;15.38;4.40;;;;;;;;;;1638884;87;21596;-77
2022/08/21 05:14:12;;;;;;;18.92;4.42;;;;;;;;;;1638878;87;21089;-77
2022/08/21 05:16:38;;;;;;;17.15;4.40;;;;;;;;;;1639729;87;21076;-77
2022/08/21 05:19:05;;;;;;;14.63;3.85;;;;;;;;;;1639562;87;21084;-77
2022/08/21 05:21:31;;;;;;;22.60;5.28;;;;;;;;;;1634380;87;21111;-76
2022/08/21 05:23:57;;;;;;;16.60;4.35;;;;;;;;;;1636099;87;21060;-76
2022/08/21 05:26:23;;;;;;;14.98;3.98;;;;;;;;;;1637068;87;21040;-76
2022/08/21 05:28:49;;;;;;;17.15;4.47;;;;;;;;;;1637595;87;21817;-76
2022/08/21 05:31:15;;;;;;;20.88;4.60;;;;;;;;;;1638738;87;21028;-76
2022/08/21 05:33:41;;;;;;;18.82;4.12;;;;;;;;;;1638073;87;21071;-76
2022/08/21 05:36:08;;;;;;;17.27;4.40;;;;;;;;;;1637600;87;21087;-76
2022/08/21 05:38:34;;;;;;;18.60;4.80;;;;;;;;;;1636196;87;21076;-76
2022/08/21 05:41:00;;;;;;;16.52;4.65;;;;;;;;;;1638960;87;21080;-76
2022/08/21 05:43:26;;;;;;;12.37;3.70;;;;;;;;;;1630698;87;21104;-76
2022/08/21 05:45:52;;;;;;;16.65;4.33;;;;;;;;;;1642568;87;21060;-76
2022/08/21 05:48:19;;;;;;;14.95;4.87;;;;;;;;;;1637952;87;21062;-76
2022/08/21 05:50:46;;;;;;;13.65;3.58;;;;;;;;;;1635336;87;21017;-77
2022/08/21 05:53:19;;;;;;;24.20;4.80;;;;;;;;;;1639986;85;21094;-77
2022/08/21 05:55:42;;;;;;;13.53;3.90;;;;;;;;;;1637075;86;21068;-77
2022/08/21 05:58:08;;;;;;;16.90;4.12;;;;;;;;;;1641437;85;22114;-78
2022/08/21 06:00:34;;;;;;;13.78;4.42;;;;;;;;;;1637043;85;21132;-76
2022/08/21 06:03:00;;;;;;;14.75;4.28;;;;;;;;;;1638134;85;21046;-77
2022/08/21 06:05:26;;;;;;;17.52;5.10;;;;;;;;;;1640253;85;21580;-77
2022/08/21 06:07:53;;;;;;;14.15;4.60;;;;;;;;;;1664925;85;21092;-80
2022/08/21 06:10:21;;;;;;;16.37;4.35;;;;;;;;;;1659581;85;21080;-78
2022/08/21 06:12:49;;;;;;;18.67;4.25;;;;;;;;;;1662535;85;21634;-79
2022/08/21 06:15:15;;;;;;;17.55;3.90;;;;;;;;;;1665902;85;21406;-79
2022/08/21 06:17:42;;;;;;;15.68;4.40;;;;;;;;;;1662546;84;21544;-79
2022/08/21 06:20:09;;;;;;;18.05;5.12;;;;;;;;;;1664708;85;21071;-77
2022/08/21 06:22:35;;;;;;;15.23;4.12;;;;;;;;;;1664522;85;21502;-77
2022/08/21 06:25:01;;;;;;;17.30;4.53;;;;;;;;;;1667717;85;21083;-76
2022/08/21 06:27:27;;;;;;;17.77;4.83;;;;;;;;;;1666982;85;21669;-76
2022/08/21 06:29:56;;;;;;;22.58;4.80;;;;;;;;;;1662619;85;22122;-76
2022/08/21 06:32:22;;;;;;;14.07;4.58;;;;;;;;;;1668148;85;21199;-77
2022/08/21 06:34:47;;;;;;;17.87;5.15;;;;;;;;;;1666129;85;22447;-76
2022/08/21 06:37:13;;;;;;;26.70;12.78;;;;;;;;;;1665030;85;21032;-76
2022/08/21 06:39:39;;;;;;;22.22;9.45;;;;;;;;;;1664441;85;21063;-77
2022/08/21 06:42:06;;;;;;;22.17;8.08;;;;;;;;;;1663901;85;21057;-78
2022/08/21 06:44:32;;;;;;;25.97;5.92;;;;;;;;;;1667002;85;21527;-74
2022/08/21 06:46:59;;;;;;;13.15;4.15;;;;;;;;;;1664312;85;21532;-75
2022/08/21 06:49:25;;;;;;;18.27;4.58;;;;;;;;;;1663064;85;21429;-73
2022/08/21 06:51:51;;;;;;;17.60;4.90;;;;;;;;;;1664091;85;21040;-75
2022/08/21 06:54:16;;;;;;;16.37;4.17;;;;;;;;;;1663492;85;21171;-75
2022/08/21 06:56:42;;;;;;;16.87;4.85;;;;;;;;;;1661908;85;21028;-74
2022/08/21 06:59:08;;;;;;;16.23;4.53;;;;;;;;;;1655584;85;21188;-74
2022/08/21 07:01:36;;;;;;;15.98;4.45;;;;;;;;;;1662111;85;21650;-75
2022/08/21 07:04:03;;;;;;;17.17;4.90;;;;;;;;;;1668032;85;21047;-75
2022/08/21 07:06:29;;;;;;;20.43;5.00;;;;;;;;;;1661015;85;21096;-76
2022/08/21 07:08:55;;;;;;;18.98;4.72;;;;;;;;;;1663037;85;21495;-77
2022/08/21 07:11:22;;;;;;;19.92;5.75;;;;;;;;;;1663547;85;21104;-76
2022/08/21 07:13:50;;;;;;;10.93;4.50;;;;;;;;;;1663720;85;21146;-75
2022/08/21 07:16:17;;;;;;;18.80;4.72;;;;;;;;;;1660559;85;21111;-76
2022/08/21 07:18:43;;;;;;;17.55;5.37;;;;;;;;;;1660308;85;21024;-76
2022/08/21 07:21:09;;;;;;;16.87;4.78;;;;;;;;;;1661543;85;21069;-76
2022/08/21 07:23:37;;;;;;;20.95;4.92;;;;;;;;;;1662739;85;21086;-77
2022/08/21 07:26:03;;;;;;;16.05;5.12;;;;;;;;;;1663512;85;21097;-76
2022/08/21 07:28:30;;;;;;;14.05;4.55;;;;;;;;;;1662525;85;21175;-75
2022/08/21 07:30:56;;;;;;;30.20;4.65;;;;;;;;;;1661353;85;21687;-76
2022/08/21 07:33:23;;;;;;;20.70;5.35;;;;;;;;;;1663646;85;21101;-77
2022/08/21 07:35:50;;;;;;;15.80;4.35;;;;;;;;;;1660661;85;21162;-75
2022/08/21 07:38:15;;;;;;;20.37;5.60;;;;;;;;;;1659219;85;21189;-76
2022/08/21 07:40:42;;;;;;;18.73;5.00;;;;;;;;;;1663483;85;21072;-77
2022/08/21 07:43:08;;;;;;;26.45;4.58;;;;;;;;;;1663427;85;21088;-78
2022/08/21 07:45:34;;;;;;;15.70;4.75;;;;;;;;;;1666183;85;21090;-76
2022/08/21 07:48:01;;;;;;;22.22;5.55;;;;;;;;;;1666205;85;21068;-76
2022/08/21 07:50:28;;;;;;;45.75;6.15;;;;;;;;;;1664617;85;21030;-76
2022/08/21 07:52:54;;;;;;;11.38;4.00;;;;;;;;;;1656078;85;21017;-77
2022/08/21 07:55:21;;;;;;;18.12;4.60;;;;;;;;;;1662370;85;21575;-77
2022/08/21 07:57:47;;;;;;;14.73;5.00;;;;;;;;;;1659560;85;21085;-75
2022/08/21 08:00:17;;;;;;;23.30;5.67;;;;;;;;;;1662821;85;21111;-77
2022/08/21 08:02:45;;;;;;;49.83;31.77;;;;;;;;;;1663162;85;22321;-74
2022/08/21 08:05:11;;;;;;;27.85;13.08;;;;;;;;;;1659030;85;21068;-74
2022/08/21 08:07:37;;;;;;;64.55;46.23;;;;;;;;;;1661218;85;22222;-75
2022/08/21 08:10:04;;;;;;;21.25;7.47;;;;;;;;;;1663290;85;21062;-73
2022/08/21 08:12:30;;;;;;;23.62;5.67;;;;;;;;;;1659136;86;21131;-76
2022/08/21 08:14:58;;;;;;;28.20;5.33;;;;;;;;;;1662115;85;21666;-75
2022/08/21 08:17:25;;;;;;;14.28;4.33;;;;;;;;;;1657834;85;21083;-74
2022/08/21 08:19:51;;;;;;;27.30;5.53;;;;;;;;;;1655790;86;21024;-75
2022/08/21 08:22:19;;;;;;;23.10;5.00;;;;;;;;;;1660498;85;21580;-74
2022/08/21 08:24:45;;;;;;;19.87;4.90;;;;;;;;;;1660082;86;21014;-75
2022/08/21 08:27:12;;;;;;;19.90;4.45;;;;;;;;;;1659712;86;21571;-76
2022/08/21 08:29:38;;;;;;;22.37;5.25;;;;;;;;;;1659362;85;21087;-76
2022/08/21 08:32:07;;;;;;;20.35;5.28;;;;;;;;;;1665051;86;22299;-77
2022/08/21 08:34:33;;;;;;;18.87;4.78;;;;;;;;;;1661687;85;21061;-76
2022/08/21 08:37:00;;;;;;;19.27;5.60;;;;;;;;;;1658546;86;21532;-77
2022/08/21 08:39:26;;;;;;;15.53;4.78;;;;;;;;;;1660772;85;21093;-76
2022/08/21 08:42:00;;;;;;;34.73;5.78;;;;;;;;;;1659563;86;22161;-75
2022/08/21 08:44:27;;;;;;;19.02;4.35;;;;;;;;;;1659844;86;21130;-75
2022/08/21 08:46:53;;;;;;;17.57;4.30;;;;;;;;;;1666719;85;21071;-75
2022/08/21 09:00:40;;;;;;;27.20;10.60;;;;;;;;;;1768704;80;25181;-68
2022/08/21 09:09:08;;;;;;;19.48;4.78;;;;;;;;;;1733927;80;21158;-72
2022/08/21 09:11:35;;;;;;;26.50;5.12;;;;;;;;;;1744307;80;21038;-75
2022/08/21 09:14:03;;;;;;;18.40;4.47;;;;;;;;;;1746391;81;20999;-76
2022/08/21 09:16:34;;;;;;;16.95;4.85;;;;;;;;;;1744146;81;21034;-76
2022/08/21 09:19:05;;;;;;;21.82;5.20;;;;;;;;;;1745203;81;21074;-76
2022/08/21 09:21:50;;;;;;;21.17;4.87;;;;;;;;;;1746502;81;21024;-75
2022/08/21 09:24:33;;;;;;;26.55;5.53;;;;;;;;;;1714220;82;21051;-75
2022/08/21 09:26:59;;;;;;;;;;;;;;;;;;1719659;82;21103;-75
2022/08/21 09:29:26;;;;;;;18.35;4.42;;;;;;;;;;1713005;82;20450;-78
2022/08/21 09:31:55;;;;;;;17.00;4.92;;;;;;;;;;1743953;81;21139;-77
2022/08/21 09:34:25;;;;;;;20.43;5.35;;;;;;;;;;1746109;81;20991;-78
2022/08/21 09:36:51;;;;;;;31.82;5.15;;;;;;;;;;1751831;81;21059;-77
2022/08/21 09:39:25;;;;;;;20.95;5.05;;;;;;;;;;1743700;81;21038;-77
2022/08/21 09:41:56;;;;;;;15.70;5.37;;;;;;;;;;1740794;81;21034;-77
2022/08/21 09:44:27;;;;;;;19.92;4.80;;;;;;;;;;1740350;81;21054;-77
2022/08/21 09:46:53;;;;;;;13.50;3.92;;;;;;;;;;1712669;82;21535;-77
2022/08/21 09:49:29;;;;;;;19.07;4.92;;;;;;;;;;1713852;82;21098;-78
2022/08/21 09:51:58;;;;;;;16.17;4.95;;;;;;;;;;1681509;84;22155;-78
2022/08/21 09:54:32;;;;;;;20.48;4.95;;;;;;;;;;1711144;82;21067;-78
2022/08/21 09:59:34;;;;;;;18.85;4.47;;;;;;;;;;1722332;81;21026;-78
2022/08/21 10:02:01;;;;;;;20.08;4.25;;;;;;;;;;1741531;81;21110;-78
2022/08/21 10:04:31;;;;;;;15.53;4.35;;;;;;;;;;1739057;81;21042;-78
2022/08/21 10:07:11;;;;;;;22.77;5.12;;;;;;;;;;1718009;81;21113;-77
2022/08/21 10:09:43;;;;;;;15.83;4.30;;;;;;;;;;1753013;80;21032;-77
2022/08/21 10:12:11;;;;;;;13.70;3.90;;;;;;;;;;1733427;81;21093;-77
2022/08/21 10:14:51;;;;;;;20.00;4.40;;;;;;;;;;1737297;81;21118;-77
2022/08/21 10:17:19;;;;;;;22.13;5.30;;;;;;;;;;1733980;81;21043;-77
2022/08/21 10:19:51;;;;;;;21.25;4.33;;;;;;;;;;1734722;81;21094;-78
2022/08/21 10:22:35;;;;;;;18.00;4.70;;;;;;;;;;1710481;83;21107;-77
2022/08/21 10:25:20;;;;;;;21.70;4.58;;;;;;;;;;1703267;83;21042;-77
2022/08/21 10:41:18;;;;;;;21.37;4.12;;;;;;;;;;1730279;82;22943;-69
2022/08/21 10:44:01;;;;;;;16.57;4.05;;;;;;;;;;1726107;82;21067;-70
2022/08/21 10:46:27;;;;;;;;;;;;;;;;;;1719121;82;21592;-70
2022/08/21 10:48:55;;;;;;;27.77;4.28;;;;;;;;;;1720530;82;20960;-70
2022/08/21 10:51:41;;;;;;;28.42;4.33;;;;;;;;;;1720043;82;21034;-71
2022/08/21 10:54:09;;;;;;;17.50;3.87;;;;;;;;;;1718887;82;21124;-70
2022/08/21 10:56:36;;;;;;;27.05;4.83;;;;;;;;;;1739541;80;21029;-69
2022/08/21 10:59:18;;;;;;;21.97;4.37;;;;;;;;;;1717774;81;21104;-70
2022/08/21 11:01:47;;;;;;;19.17;4.03;;;;;;;;;;1707590;81;21078;-69
2022/08/21 11:04:22;;;;;;;23.15;4.40;;;;;;;;;;1712240;81;21077;-72
2022/08/21 11:06:53;;;;;;;16.62;4.60;;;;;;;;;;1724385;82;21107;-73
2022/08/21 11:09:20;;;;;;;18.40;4.50;;;;;;;;;;1732195;82;21100;-72
2022/08/21 11:12:04;;;;;;;20.55;4.50;;;;;;;;;;1724620;82;21083;-71
2022/08/21 11:14:33;;;;;;;18.82;4.37;;;;;;;;;;1720195;82;21595;-74
2022/08/21 11:17:01;;;;;;;24.52;4.40;;;;;;;;;;1718241;82;21004;-72
2022/08/21 11:19:35;;;;;;;18.00;4.35;;;;;;;;;;1719237;82;21075;-71
2022/08/21 11:22:06;;;;;;;14.53;4.00;;;;;;;;;;1719107;82;21150;-70
2022/08/21 11:24:34;;;;;;;20.85;4.42;;;;;;;;;;1721695;82;21060;-71
2022/08/21 11:27:02;;;;;;;21.23;4.83;;;;;;;;;;1728919;81;21048;-70
2022/08/21 11:29:36;;;;;;;17.50;3.70;;;;;;;;;;1718011;81;21111;-71
2022/08/21 11:32:22;;;;;;;17.95;4.97;;;;;;;;;;1716835;82;21076;-71
2022/08/21 11:34:57;;;;;;;23.00;4.33;;;;;;;;;;1717142;82;21103;-71
2022/08/21 11:37:21;;;;;;;;;;;;;;;;;;1723687;82;21094;-70
2022/08/21 11:40:04;;;;;;;17.50;4.58;;;;;;;;;;1723199;81;20169;-72
2022/08/21 11:42:50;;;;;;;13.05;4.20;;;;;;;;;;1742007;81;21083;-73
2022/08/21 11:45:21;;;;;;;23.22;4.72;;;;;;;;;;1759582;79;21781;-71
2022/08/21 11:48:06;;;;;;;24.70;5.10;;;;;;;;;;1744292;81;21077;-72
2022/08/21 11:50:32;;;;;;;17.73;4.12;;;;;;;;;;1731745;81;21508;-72
2022/08/21 11:53:15;;;;;;;22.60;4.35;;;;;;;;;;1742680;81;21056;-71
2022/08/21 11:55:41;;;;;;;;;;;;;;;;;;1750810;81;21018;-73
2022/08/21 11:58:09;;;;;;;17.40;4.25;;;;;;;;;;1739907;81;20132;-72
2022/08/21 12:00:40;;;;;;;17.40;4.20;;;;;;;;;;1740144;81;22256;-71
2022/08/21 12:03:08;;;;;;;22.13;5.42;;;;;;;;;;1738060;81;21600;-72
2022/08/21 12:05:36;;;;;;;20.97;4.53;;;;;;;;;;1737735;81;21104;-72
2022/08/21 12:08:11;;;;;;;16.52;4.53;;;;;;;;;;1741077;81;21075;-71
2022/08/21 12:10:39;;;;;;;19.67;4.35;;;;;;;;;;1740569;81;22098;-71
2022/08/21 12:13:12;;;;;;;20.15;5.08;;;;;;;;;;1735679;81;21194;-72
2022/08/21 12:15:38;;;;;;;20.20;5.55;;;;;;;;;;1742302;81;21061;-72
2022/08/21 12:18:07;;;;;;;23.65;4.55;;;;;;;;;;1737882;81;21091;-72
2022/08/21 12:20:38;;;;;;;14.95;4.05;;;;;;;;;;1741182;81;21060;-72
2022/08/21 12:23:06;;;;;;;16.17;4.17;;;;;;;;;;1751278;81;21123;-70
2022/08/21 12:25:36;;;;;;;18.10;4.12;;;;;;;;;;1742558;81;21109;-72
2022/08/21 12:28:03;;;;;;;16.10;4.42;;;;;;;;;;1746320;81;21106;-71
2022/08/21 12:30:31;;;;;;;15.08;3.58;;;;;;;;;;1709589;81;21086;-72
2022/08/21 12:32:58;;;;;;;14.90;3.70;;;;;;;;;;1759611;79;21086;-71
2022/08/21 12:35:25;;;;;;;18.12;4.65;;;;;;;;;;1734861;81;21023;-72
2022/08/21 12:37:59;;;;;;;17.50;4.50;;;;;;;;;;1755485;79;22143;-71
2022/08/21 12:40:27;;;;;;;16.15;4.15;;;;;;;;;;1733281;81;21066;-70
2022/08/21 12:42:54;;;;;;;21.60;4.33;;;;;;;;;;1739398;81;21048;-70
2022/08/21 12:45:22;;;;;;;15.65;3.83;;;;;;;;;;1742490;81;21012;-72
2022/08/21 12:47:53;;;;;;;23.07;5.03;;;;;;;;;;1754050;81;21540;-70
2022/08/21 12:50:24;;;;;;;17.42;4.70;;;;;;;;;;1736628;81;22487;-70
2022/08/21 12:53:06;;;;;;;23.25;4.97;;;;;;;;;;1679025;81;21461;-70
2022/08/21 12:55:33;;;;;;;22.10;4.58;;;;;;;;;;1740497;81;21059;-70
2022/08/21 12:57:59;;;;;;;17.10;4.20;;;;;;;;;;1754434;79;21096;-70
2022/08/21 13:00:26;;;;;;;19.87;4.10;;;;;;;;;;1738289;81;21516;-69
2022/08/21 13:02:52;;;;;;;13.70;4.00;;;;;;;;;;1738372;81;21124;-70
2022/08/21 13:05:27;;;;;;;18.10;4.70;;;;;;;;;;1737619;81;21029;-71
2022/08/21 13:07:54;;;;;;;19.70;3.90;;;;;;;;;;1740149;81;21540;-70
2022/08/21 13:10:22;;;;;;;18.10;5.17;;;;;;;;;;1757899;79;21047;-70
2022/08/21 13:12:48;;;;;;;22.15;4.28;;;;;;;;;;1750939;81;21075;-81
2022/08/21 13:15:14;;;;;;;19.95;4.25;;;;;;;;;;1758571;79;21103;-72
2022/08/21 13:17:41;;;;;;;25.57;6.40;;;;;;;;;;1741123;81;20998;-73
2022/08/21 13:20:10;;;;;;;23.18;4.42;;;;;;;;;;1731959;81;21058;-72
2022/08/21 13:22:43;;;;;;;26.12;5.55;;;;;;;;;;1715502;81;21093;-72
2022/08/21 13:25:10;;;;;;;14.65;3.90;;;;;;;;;;1739081;81;21049;-73
2022/08/21 13:27:48;;;;;;;19.15;4.22;;;;;;;;;;1754248;79;21091;-71
2022/08/21 13:30:18;;;;;;;15.90;4.33;;;;;;;;;;1747631;81;21114;-72
2022/08/21 13:32:45;;;;;;;18.65;4.17;;;;;;;;;;1749909;81;21024;-72
2022/08/21 13:35:13;;;;;;;13.18;3.92;;;;;;;;;;1734071;81;21123;-73
2022/08/21 13:37:40;;;;;;;11.20;3.85;;;;;;;;;;1736145;81;21118;-72
2022/08/21 13:40:08;;;;;;;14.65;3.90;;;;;;;;;;1734395;81;21128;-72
2022/08/21 13:42:34;;;;;;;16.37;4.05;;;;;;;;;;1739396;80;21089;-72
2022/08/21 13:45:03;;;;;;;15.50;3.80;;;;;;;;;;1707576;82;21091;-73
2022/08/21 13:47:29;;;;;;;12.07;3.90;;;;;;;;;;1704795;82;21668;-72
2022/08/21 13:49:55;;;;;;;18.77;4.40;;;;;;;;;;1738578;80;21014;-71
2022/08/21 13:52:25;;;;;;;13.08;3.47;;;;;;;;;;1735407;80;21088;-73
2022/08/21 13:54:54;;;;;;;31.30;5.10;;;;;;;;;;1726162;82;22508;-73
2022/08/21 13:57:22;;;;;;;16.20;4.12;;;;;;;;;;1711596;82;21070;-72
2022/08/21 13:59:48;;;;;;;16.62;3.92;;;;;;;;;;1717421;82;21097;-73
2022/08/21 14:02:16;;;;;;;35.43;4.78;;;;;;;;;;1719106;82;21081;-72
2022/08/21 14:04:56;;;;;;;17.60;3.75;;;;;;;;;;1713405;82;21061;-73
2022/08/21 14:07:29;;;;;;;50.50;6.92;;;;;;;;;;1717782;82;21073;-72
2022/08/21 14:09:55;;;;;;;15.13;4.00;;;;;;;;;;1738565;80;21021;-73
2022/08/21 14:12:27;;;;;;;19.40;4.30;;;;;;;;;;1728435;81;21036;-72
2022/08/21 14:14:53;;;;;;;19.50;4.67;;;;;;;;;;1738547;80;21077;-72
2022/08/21 14:17:27;;;;;;;23.85;4.47;;;;;;;;;;1735902;80;21131;-73
2022/08/21 14:19:53;;;;;;;20.17;4.12;;;;;;;;;;1704651;82;21680;-73
2022/08/21 14:22:38;;;;;;;17.60;4.03;;;;;;;;;;1706292;82;21063;-72
2022/08/21 14:25:10;;;;;;;25.88;4.97;;;;;;;;;;1739734;80;21086;-70
2022/08/21 14:27:38;;;;;;;17.98;3.92;;;;;;;;;;1706888;82;21145;-73
2022/08/21 14:30:12;;;;;;;23.42;4.47;;;;;;;;;;1722866;81;21634;-71
2022/08/21 14:32:39;;;;;;;22.60;4.60;;;;;;;;;;1736245;80;21536;-71
2022/08/21 14:35:06;;;;;;;21.15;4.47;;;;;;;;;;1714852;82;21099;-72
2022/08/21 14:37:33;;;;;;;24.18;5.05;;;;;;;;;;1732799;80;21585;-71
2022/08/21 14:39:59;;;;;;;15.30;4.20;;;;;;;;;;1706556;82;21012;-72
2022/08/21 14:42:25;;;;;;;19.00;4.67;;;;;;;;;;1722370;82;21075;-72
2022/08/21 14:44:51;;;;;;;17.42;3.92;;;;;;;;;;1734091;82;21525;-73
2022/08/21 14:47:17;;;;;;;18.80;4.50;;;;;;;;;;1731117;82;21082;-71
2022/08/21 14:49:44;;;;;;;17.87;3.92;;;;;;;;;;1711121;83;21574;-72
2022/08/21 14:52:10;;;;;;;21.45;4.22;;;;;;;;;;1708193;84;21592;-71
2022/08/21 14:54:36;;;;;;;14.50;3.98;;;;;;;;;;1697412;83;21070;-72
2022/08/21 14:57:04;;;;;;;23.25;4.65;;;;;;;;;;1725760;82;21042;-72
2022/08/21 14:59:32;;;;;;;18.57;4.62;;;;;;;;;;1718896;82;22333;-71
2022/08/21 15:01:58;;;;;;;24.27;5.00;;;;;;;;;;1723450;81;21614;-71
2022/08/21 15:04:24;;;;;;;19.87;4.37;;;;;;;;;;1716641;82;21020;-73
2022/08/21 15:06:50;;;;;;;21.42;4.05;;;;;;;;;;1716693;82;21048;-71
2022/08/21 15:09:16;;;;;;;33.30;5.78;;;;;;;;;;1718052;82;21205;-71
2022/08/21 15:11:43;;;;;;;20.30;5.45;;;;;;;;;;1717578;82;22140;-72
2022/08/21 15:14:11;;;;;;;30.30;5.05;;;;;;;;;;1730396;80;21300;-71
2022/08/21 15:16:37;;;;;;;16.15;4.15;;;;;;;;;;1741209;80;21544;-73
2022/08/21 15:19:03;;;;;;;15.15;4.87;;;;;;;;;;1716365;82;21605;-71
2022/08/21 15:21:30;;;;;;;20.37;4.62;;;;;;;;;;1733531;82;21138;-72
2022/08/21 15:23:56;;;;;;;22.45;4.60;;;;;;;;;;1727787;82;21204;-71
2022/08/21 15:26:22;;;;;;;18.10;4.67;;;;;;;;;;1721443;82;21114;-72
2022/08/21 15:28:48;;;;;;;17.95;4.22;;;;;;;;;;1717899;82;21631;-72
2022/08/21 15:31:14;;;;;;;23.25;4.87;;;;;;;;;;1718581;82;21012;-72
2022/08/21 15:33:40;;;;;;;18.65;4.60;;;;;;;;;;1720224;82;21161;-72